sensor_id;sensor_type;location;lat;lon;timestamp;temperature;humidity
52107;DHT22;38105;52.968;5.974;2022-11-04T00:01:47;10.50;99.90
52107;DHT22;38105;52.968;5.974;2022-11-04T00:04:15;10.50;99.90
52107;DHT22;38105;52.968;5.974;2022-11-04T00:06:41;10.50;99.90
52107;DHT22;38105;52.968;5.974;2022-11-04T00:09:09;10.80;99.90
52107;DHT22;38105;52.968;5.974;2022-11-04T00:11:35;10.50;99.90
52107;DHT22;38105;52.968;5.974;2022-11-04T00:14:20;10.40;99.90
52107;DHT22;38105;52.968;5.974;2022-11-04T00:16:46;10.80;99.90
52107;DHT22;38105;52.968;5.974;2022-11-04T00:19:30;10.50;99.90
52107;DHT22;38105;52.968;5.974;2022-11-04T00:22:15;10.60;99.90
52107;DHT22;38105;52.968;5.974;2022-11-04T00:24:59;10.90;99.90
52107;DHT22;38105;52.968;5.974;2022-11-04T00:27:48;10.60;99.90
52107;DHT22;38105;52.968;5.974;2022-11-04T00:30:32;10.80;99.90
52107;DHT22;38105;52.968;5.974;2022-11-04T00:32:57;10.80;99.90
52107;DHT22;38105;52.968;5.974;2022-11-04T00:35:48;10.80;99.90
52107;DHT22;38105;52.968;5.974;2022-11-04T00:38:14;10.70;99.90
52107;DHT22;38105;52.968;5.974;2022-11-04T00:40:40;10.50;99.90
52107;DHT22;38105;52.968;5.974;2022-11-04T00:43:06;10.50;99.90
52107;DHT22;38105;52.968;5.974;2022-11-04T00:45:31;10.70;99.90
52107;DHT22;38105;52.968;5.974;2022-11-04T00:47:57;10.70;99.90
52107;DHT22;38105;52.968;5.974;2022-11-04T00:50:23;10.50;99.90
52107;DHT22;38105;52.968;5.974;2022-11-04T00:52:48;10.40;99.90
52107;DHT22;38105;52.968;5.974;2022-11-04T00:55:14;10.40;99.90
52107;DHT22;38105;52.968;5.974;2022-11-04T00:57:39;10.50;99.90
52107;DHT22;38105;52.968;5.974;2022-11-04T01:00:05;10.70;99.90
52107;DHT22;38105;52.968;5.974;2022-11-04T01:02:31;10.70;99.90
52107;DHT22;38105;52.968;5.974;2022-11-04T01:04:57;10.40;99.90
52107;DHT22;38105;52.968;5.974;2022-11-04T01:07:22;10.40;99.90
52107;DHT22;38105;52.968;5.974;2022-11-04T01:09:49;10.40;99.90
52107;DHT22;38105;52.968;5.974;2022-11-04T01:12:14;10.80;99.90
52107;DHT22;38105;52.968;5.974;2022-11-04T01:14:41;10.80;99.90
52107;DHT22;38105;52.968;5.974;2022-11-04T01:17:07;10.40;99.90
52107;DHT22;38105;52.968;5.974;2022-11-04T01:19:33;10.80;99.90
52107;DHT22;38105;52.968;5.974;2022-11-04T01:21:58;10.60;99.90
52107;DHT22;38105;52.968;5.974;2022-11-04T01:24:24;10.50;99.90
52107;DHT22;38105;52.968;5.974;2022-11-04T01:26:49;10.40;99.90
52107;DHT22;38105;52.968;5.974;2022-11-04T01:29:15;10.80;99.90
52107;DHT22;38105;52.968;5.974;2022-11-04T01:31:41;10.50;99.90
52107;DHT22;38105;52.968;5.974;2022-11-04T01:34:07;10.70;99.90
52107;DHT22;38105;52.968;5.974;2022-11-04T01:36:33;10.50;99.90
52107;DHT22;38105;52.968;5.974;2022-11-04T01:38:59;10.40;99.90
52107;DHT22;38105;52.968;5.974;2022-11-04T01:41:30;10.70;99.90
52107;DHT22;38105;52.968;5.974;2022-11-04T01:47:00;10.70;99.90
52107;DHT22;38105;52.968;5.974;2022-11-04T01:52:01;10.40;99.90
52107;DHT22;38105;52.968;5.974;2022-11-04T01:54:29;10.80;99.90
52107;DHT22;38105;52.968;5.974;2022-11-04T01:56:57;10.50;99.90
52107;DHT22;38105;52.968;5.974;2022-11-04T01:59:31;10.50;99.90
52107;DHT22;38105;52.968;5.974;2022-11-04T02:01:57;10.40;99.90
52107;DHT22;38105;52.968;5.974;2022-11-04T02:04:23;10.60;99.90
52107;DHT22;38105;52.968;5.974;2022-11-04T02:06:55;10.50;99.90
52107;DHT22;38105;52.968;5.974;2022-11-04T02:09:22;10.80;99.90
52107;DHT22;38105;52.968;5.974;2022-11-04T02:11:48;10.50;99.90
52107;DHT22;38105;52.968;5.974;2022-11-04T02:14:33;10.40;99.90
52107;DHT22;38105;52.968;5.974;2022-11-04T02:17:27;10.80;99.90
52107;DHT22;38105;52.968;5.974;2022-11-04T02:23:11;10.60;99.90
52107;DHT22;38105;52.968;5.974;2022-11-04T02:29:10;10.40;99.90
52107;DHT22;38105;52.968;5.974;2022-11-04T02:37:54;10.80;99.90
52107;DHT22;38105;52.968;5.974;2022-11-04T02:48:06;10.50;99.90
52107;DHT22;38105;52.968;5.974;2022-11-04T02:53:28;10.50;99.90
52107;DHT22;38105;52.968;5.974;2022-11-04T02:55:56;10.40;99.90
52107;DHT22;38105;52.968;5.974;2022-11-04T02:58:28;10.80;99.90
52107;DHT22;38105;52.968;5.974;2022-11-04T03:00:56;10.50;99.90
52107;DHT22;38105;52.968;5.974;2022-11-04T03:03:26;10.80;99.90
52107;DHT22;38105;52.968;5.974;2022-11-04T03:05:54;10.70;99.90
52107;DHT22;38105;52.968;5.974;2022-11-04T03:08:40;10.40;99.90
52107;DHT22;38105;52.968;5.974;2022-11-04T03:11:14;10.60;99.90
52107;DHT22;38105;52.968;5.974;2022-11-04T03:13:59;10.40;99.90
52107;DHT22;38105;52.968;5.974;2022-11-04T03:16:42;10.40;99.90
52107;DHT22;38105;52.968;5.974;2022-11-04T03:21:57;10.30;99.90
52107;DHT22;38105;52.968;5.974;2022-11-04T03:24:24;10.70;99.90
52107;DHT22;38105;52.968;5.974;2022-11-04T03:30:07;10.60;99.90
52107;DHT22;38105;52.968;5.974;2022-11-04T03:32:42;10.30;99.90
52107;DHT22;38105;52.968;5.974;2022-11-04T03:35:10;10.30;99.90
52107;DHT22;38105;52.968;5.974;2022-11-04T03:37:36;10.40;99.90
52107;DHT22;38105;52.968;5.974;2022-11-04T03:40:03;10.70;99.90
52107;DHT22;38105;52.968;5.974;2022-11-04T03:42:30;10.40;99.90
52107;DHT22;38105;52.968;5.974;2022-11-04T03:44:57;10.20;99.90
52107;DHT22;38105;52.968;5.974;2022-11-04T03:47:24;10.30;99.90
52107;DHT22;38105;52.968;5.974;2022-11-04T03:50:01;10.40;99.90
52107;DHT22;38105;52.968;5.974;2022-11-04T03:52:29;10.40;99.90
52107;DHT22;38105;52.968;5.974;2022-11-04T03:54:55;10.50;99.90
52107;DHT22;38105;52.968;5.974;2022-11-04T04:00:04;10.40;99.90
52107;DHT22;38105;52.968;5.974;2022-11-04T04:11:40;10.10;99.90
52107;DHT22;38105;52.968;5.974;2022-11-04T04:14:28;10.20;99.90
52107;DHT22;38105;52.968;5.974;2022-11-04T04:17:24;10.10;99.90
52107;DHT22;38105;52.968;5.974;2022-11-04T04:19:58;10.40;99.90
52107;DHT22;38105;52.968;5.974;2022-11-04T04:22:32;10.00;99.90
52107;DHT22;38105;52.968;5.974;2022-11-04T04:25:01;9.90;99.90
52107;DHT22;38105;52.968;5.974;2022-11-04T04:27:48;10.10;99.90
52107;DHT22;38105;52.968;5.974;2022-11-04T04:30:15;10.10;99.90
52107;DHT22;38105;52.968;5.974;2022-11-04T04:33:05;10.00;99.90
52107;DHT22;38105;52.968;5.974;2022-11-04T04:35:38;10.20;99.90
52107;DHT22;38105;52.968;5.974;2022-11-04T04:38:23;10.10;99.90
52107;DHT22;38105;52.968;5.974;2022-11-04T04:41:26;9.90;99.90
52107;DHT22;38105;52.968;5.974;2022-11-04T04:44:19;10.30;99.90
52107;DHT22;38105;52.968;5.974;2022-11-04T04:47:06;10.30;99.90
52107;DHT22;38105;52.968;5.974;2022-11-04T04:49:33;9.90;99.90
52107;DHT22;38105;52.968;5.974;2022-11-04T04:52:00;10.30;99.90
52107;DHT22;38105;52.968;5.974;2022-11-04T04:54:26;10.30;99.90
52107;DHT22;38105;52.968;5.974;2022-11-04T04:56:52;10.00;99.90
52107;DHT22;38105;52.968;5.974;2022-11-04T04:59:17;10.10;99.90
52107;DHT22;38105;52.968;5.974;2022-11-04T05:01:43;10.00;99.90
52107;DHT22;38105;52.968;5.974;2022-11-04T05:04:09;9.90;99.90
52107;DHT22;38105;52.968;5.974;2022-11-04T05:06:35;10.30;99.90
52107;DHT22;38105;52.968;5.974;2022-11-04T05:09:00;10.30;99.90
52107;DHT22;38105;52.968;5.974;2022-11-04T05:11:26;10.00;99.90
52107;DHT22;38105;52.968;5.974;2022-11-04T05:13:51;10.20;99.90
52107;DHT22;38105;52.968;5.974;2022-11-04T05:16:17;9.70;99.90
52107;DHT22;38105;52.968;5.974;2022-11-04T05:18:43;9.60;99.90
52107;DHT22;38105;52.968;5.974;2022-11-04T05:21:12;10.00;99.90
52107;DHT22;38105;52.968;5.974;2022-11-04T05:23:38;9.80;99.90
52107;DHT22;38105;52.968;5.974;2022-11-04T05:26:04;9.60;99.90
52107;DHT22;38105;52.968;5.974;2022-11-04T05:28:30;9.90;99.90
52107;DHT22;38105;52.968;5.974;2022-11-04T05:30:56;9.60;99.90
52107;DHT22;38105;52.968;5.974;2022-11-04T05:33:22;9.70;99.90
52107;DHT22;38105;52.968;5.974;2022-11-04T05:35:48;9.90;99.90
52107;DHT22;38105;52.968;5.974;2022-11-04T05:38:13;10.00;99.90
52107;DHT22;38105;52.968;5.974;2022-11-04T05:40:39;9.80;99.90
52107;DHT22;38105;52.968;5.974;2022-11-04T05:43:05;9.90;99.90
52107;DHT22;38105;52.968;5.974;2022-11-04T05:45:30;9.90;99.90
52107;DHT22;38105;52.968;5.974;2022-11-04T05:48:00;9.70;99.90
52107;DHT22;38105;52.968;5.974;2022-11-04T05:50:27;9.70;99.90
52107;DHT22;38105;52.968;5.974;2022-11-04T05:52:56;9.30;99.90
52107;DHT22;38105;52.968;5.974;2022-11-04T05:55:22;9.70;99.90
52107;DHT22;38105;52.968;5.974;2022-11-04T05:57:48;9.70;99.90
52107;DHT22;38105;52.968;5.974;2022-11-04T06:00:14;9.30;99.90
52107;DHT22;38105;52.968;5.974;2022-11-04T06:02:39;9.40;99.90
52107;DHT22;38105;52.968;5.974;2022-11-04T06:05:06;9.70;99.90
52107;DHT22;38105;52.968;5.974;2022-11-04T06:07:31;9.60;99.90
52107;DHT22;38105;52.968;5.974;2022-11-04T06:09:57;9.60;99.90
52107;DHT22;38105;52.968;5.974;2022-11-04T06:12:23;9.40;99.90
52107;DHT22;38105;52.968;5.974;2022-11-04T06:14:48;9.70;99.90
52107;DHT22;38105;52.968;5.974;2022-11-04T06:17:19;9.80;99.90
52107;DHT22;38105;52.968;5.974;2022-11-04T06:19:45;9.80;99.90
52107;DHT22;38105;52.968;5.974;2022-11-04T06:22:16;9.50;99.90
52107;DHT22;38105;52.968;5.974;2022-11-04T06:24:41;9.90;99.90
52107;DHT22;38105;52.968;5.974;2022-11-04T06:27:08;9.50;99.90
52107;DHT22;38105;52.968;5.974;2022-11-04T06:29:35;9.80;99.90
52107;DHT22;38105;52.968;5.974;2022-11-04T06:32:05;9.70;99.90
52107;DHT22;38105;52.968;5.974;2022-11-04T06:34:30;9.40;99.90
52107;DHT22;38105;52.968;5.974;2022-11-04T06:36:56;9.50;99.90
52107;DHT22;38105;52.968;5.974;2022-11-04T06:39:21;9.40;99.90
52107;DHT22;38105;52.968;5.974;2022-11-04T06:41:48;9.50;99.90
52107;DHT22;38105;52.968;5.974;2022-11-04T06:44:13;9.50;99.90
52107;DHT22;38105;52.968;5.974;2022-11-04T06:46:41;9.40;99.90
52107;DHT22;38105;52.968;5.974;2022-11-04T06:49:11;9.70;99.90
52107;DHT22;38105;52.968;5.974;2022-11-04T06:51:37;9.70;99.90
52107;DHT22;38105;52.968;5.974;2022-11-04T06:54:03;9.40;99.90
52107;DHT22;38105;52.968;5.974;2022-11-04T06:56:29;9.60;99.90
52107;DHT22;38105;52.968;5.974;2022-11-04T06:58:55;9.50;99.90
52107;DHT22;38105;52.968;5.974;2022-11-04T07:01:24;9.30;99.90
52107;DHT22;38105;52.968;5.974;2022-11-04T07:03:52;9.40;99.90
52107;DHT22;38105;52.968;5.974;2022-11-04T07:06:18;9.20;99.90
52107;DHT22;38105;52.968;5.974;2022-11-04T07:08:44;9.20;99.90
52107;DHT22;38105;52.968;5.974;2022-11-04T07:11:11;9.20;99.90
52107;DHT22;38105;52.968;5.974;2022-11-04T07:13:37;9.10;99.90
52107;DHT22;38105;52.968;5.974;2022-11-04T07:16:06;9.20;99.90
52107;DHT22;38105;52.968;5.974;2022-11-04T07:18:32;9.60;99.90
52107;DHT22;38105;52.968;5.974;2022-11-04T07:20:58;9.90;99.90
52107;DHT22;38105;52.968;5.974;2022-11-04T07:23:24;10.00;99.90
52107;DHT22;38105;52.968;5.974;2022-11-04T07:25:50;9.90;99.90
52107;DHT22;38105;52.968;5.974;2022-11-04T07:28:16;10.00;99.90
52107;DHT22;38105;52.968;5.974;2022-11-04T07:30:41;9.80;99.90
52107;DHT22;38105;52.968;5.974;2022-11-04T07:33:07;10.00;99.90
52107;DHT22;38105;52.968;5.974;2022-11-04T07:35:33;9.90;99.90
52107;DHT22;38105;52.968;5.974;2022-11-04T07:37:58;9.70;99.90
52107;DHT22;38105;52.968;5.974;2022-11-04T07:40:24;9.80;99.90
52107;DHT22;38105;52.968;5.974;2022-11-04T07:42:50;9.50;99.90
52107;DHT22;38105;52.968;5.974;2022-11-04T07:45:16;9.70;99.90
52107;DHT22;38105;52.968;5.974;2022-11-04T07:47:41;9.40;99.90
52107;DHT22;38105;52.968;5.974;2022-11-04T07:50:07;9.40;99.90
52107;DHT22;38105;52.968;5.974;2022-11-04T07:52:33;9.40;99.90
52107;DHT22;38105;52.968;5.974;2022-11-04T07:54:58;9.50;99.90
52107;DHT22;38105;52.968;5.974;2022-11-04T07:57:24;9.40;99.90
52107;DHT22;38105;52.968;5.974;2022-11-04T07:59:50;9.70;99.90
52107;DHT22;38105;52.968;5.974;2022-11-04T08:02:15;10.10;99.90
52107;DHT22;38105;52.968;5.974;2022-11-04T08:04:41;11.20;99.90
52107;DHT22;38105;52.968;5.974;2022-11-04T08:07:08;12.80;99.90
52107;DHT22;38105;52.968;5.974;2022-11-04T08:09:34;14.50;99.90
52107;DHT22;38105;52.968;5.974;2022-11-04T08:12:02;15.70;99.90
52107;DHT22;38105;52.968;5.974;2022-11-04T08:14:28;17.10;99.90
52107;DHT22;38105;52.968;5.974;2022-11-04T08:16:54;18.20;99.90
52107;DHT22;38105;52.968;5.974;2022-11-04T08:19:20;19.00;99.90
52107;DHT22;38105;52.968;5.974;2022-11-04T08:21:45;19.60;99.90
52107;DHT22;38105;52.968;5.974;2022-11-04T08:24:11;19.90;99.90
52107;DHT22;38105;52.968;5.974;2022-11-04T08:26:37;19.30;99.90
52107;DHT22;38105;52.968;5.974;2022-11-04T08:29:07;18.80;99.90
52107;DHT22;38105;52.968;5.974;2022-11-04T08:31:33;18.40;99.90
52107;DHT22;38105;52.968;5.974;2022-11-04T08:33:59;17.80;99.90
52107;DHT22;38105;52.968;5.974;2022-11-04T08:36:31;17.60;99.90
52107;DHT22;38105;52.968;5.974;2022-11-04T08:38:57;17.90;99.90
52107;DHT22;38105;52.968;5.974;2022-11-04T08:41:26;17.50;99.90
52107;DHT22;38105;52.968;5.974;2022-11-04T08:43:54;17.00;99.90
52107;DHT22;38105;52.968;5.974;2022-11-04T08:46:20;16.10;99.90
52107;DHT22;38105;52.968;5.974;2022-11-04T08:48:46;15.50;99.90
52107;DHT22;38105;52.968;5.974;2022-11-04T08:51:17;16.20;99.90
52107;DHT22;38105;52.968;5.974;2022-11-04T08:53:43;17.70;99.90
52107;DHT22;38105;52.968;5.974;2022-11-04T08:56:10;19.40;99.90
52107;DHT22;38105;52.968;5.974;2022-11-04T08:58:36;20.80;99.90
52107;DHT22;38105;52.968;5.974;2022-11-04T09:01:04;21.30;99.90
52107;DHT22;38105;52.968;5.974;2022-11-04T09:03:29;21.70;99.90
52107;DHT22;38105;52.968;5.974;2022-11-04T09:05:57;21.90;99.90
52107;DHT22;38105;52.968;5.974;2022-11-04T09:08:22;21.90;99.90
52107;DHT22;38105;52.968;5.974;2022-11-04T09:10:48;22.10;99.90
52107;DHT22;38105;52.968;5.974;2022-11-04T09:13:14;21.90;99.90
52107;DHT22;38105;52.968;5.974;2022-11-04T09:15:41;21.10;99.90
52107;DHT22;38105;52.968;5.974;2022-11-04T09:18:07;20.00;99.90
52107;DHT22;38105;52.968;5.974;2022-11-04T09:20:33;19.00;99.90
52107;DHT22;38105;52.968;5.974;2022-11-04T09:23:03;18.30;99.90
52107;DHT22;38105;52.968;5.974;2022-11-04T09:25:29;17.80;99.90
52107;DHT22;38105;52.968;5.974;2022-11-04T09:27:54;17.50;99.90
52107;DHT22;38105;52.968;5.974;2022-11-04T09:30:20;17.30;99.90
52107;DHT22;38105;52.968;5.974;2022-11-04T09:32:46;17.00;99.90
52107;DHT22;38105;52.968;5.974;2022-11-04T09:35:11;16.80;99.90
52107;DHT22;38105;52.968;5.974;2022-11-04T09:37:37;16.70;99.90
52107;DHT22;38105;52.968;5.974;2022-11-04T09:40:03;16.50;99.90
52107;DHT22;38105;52.968;5.974;2022-11-04T09:45:16;16.30;99.90
52107;DHT22;38105;52.968;5.974;2022-11-04T09:47:46;16.30;99.90
52107;DHT22;38105;52.968;5.974;2022-11-04T09:50:21;16.20;99.90
52107;DHT22;38105;52.968;5.974;2022-11-04T09:52:53;16.30;99.90
52107;DHT22;38105;52.968;5.974;2022-11-04T09:55:31;16.20;99.90
52107;DHT22;38105;52.968;5.974;2022-11-04T09:57:59;16.00;99.90
52107;DHT22;38105;52.968;5.974;2022-11-04T10:00:25;15.80;99.90
52107;DHT22;38105;52.968;5.974;2022-11-04T10:08:59;15.80;99.90
52107;DHT22;38105;52.968;5.974;2022-11-04T10:17:20;16.10;99.90
52107;DHT22;38105;52.968;5.974;2022-11-04T10:22:32;16.00;99.90
52107;DHT22;38105;52.968;5.974;2022-11-04T10:27:44;16.10;99.90
52107;DHT22;38105;52.968;5.974;2022-11-04T10:30:25;16.20;99.90
52107;DHT22;38105;52.968;5.974;2022-11-04T10:35:43;16.20;99.90
52107;DHT22;38105;52.968;5.974;2022-11-04T10:38:23;15.80;99.90
52107;DHT22;38105;52.968;5.974;2022-11-04T10:40:53;16.00;99.90
52107;DHT22;38105;52.968;5.974;2022-11-04T10:43:34;16.10;99.90
52107;DHT22;38105;52.968;5.974;2022-11-04T10:51:40;16.00;99.90
52107;DHT22;38105;52.968;5.974;2022-11-04T10:54:08;15.90;99.90
52107;DHT22;38105;52.968;5.974;2022-11-04T10:56:49;15.90;99.90
52107;DHT22;38105;52.968;5.974;2022-11-04T10:59:52;16.00;99.90
52107;DHT22;38105;52.968;5.974;2022-11-04T11:05:13;16.10;99.90
52107;DHT22;38105;52.968;5.974;2022-11-04T11:07:40;16.10;99.90
52107;DHT22;38105;52.968;5.974;2022-11-04T11:10:20;16.00;99.90
52107;DHT22;38105;52.968;5.974;2022-11-04T11:13:04;15.80;99.90
52107;DHT22;38105;52.968;5.974;2022-11-04T11:15:36;15.50;99.90
52107;DHT22;38105;52.968;5.974;2022-11-04T11:20:38;14.80;99.90
52107;DHT22;38105;52.968;5.974;2022-11-04T11:23:35;14.50;99.90
52107;DHT22;38105;52.968;5.974;2022-11-04T11:26:03;14.20;99.90
52107;DHT22;38105;52.968;5.974;2022-11-04T11:28:30;14.00;99.90
52107;DHT22;38105;52.968;5.974;2022-11-04T11:31:09;13.90;99.90
52107;DHT22;38105;52.968;5.974;2022-11-04T11:34:04;13.80;99.90
52107;DHT22;38105;52.968;5.974;2022-11-04T11:36:33;13.70;99.90
52107;DHT22;38105;52.968;5.974;2022-11-04T11:39:14;13.70;99.90
52107;DHT22;38105;52.968;5.974;2022-11-04T11:42:07;13.70;99.90
52107;DHT22;38105;52.968;5.974;2022-11-04T11:44:47;13.80;99.90
52107;DHT22;38105;52.968;5.974;2022-11-04T11:47:21;13.80;99.90
52107;DHT22;38105;52.968;5.974;2022-11-04T11:50:05;13.90;99.90
52107;DHT22;38105;52.968;5.974;2022-11-04T11:52:32;14.00;99.90
52107;DHT22;38105;52.968;5.974;2022-11-04T11:55:18;14.00;99.90
52107;DHT22;38105;52.968;5.974;2022-11-04T12:00:20;14.30;99.90
52107;DHT22;38105;52.968;5.974;2022-11-04T12:05:34;14.90;99.90
52107;DHT22;38105;52.968;5.974;2022-11-04T12:11:44;15.20;99.90
52107;DHT22;38105;52.968;5.974;2022-11-04T12:14:00;15.20;99.90
52107;DHT22;38105;52.968;5.974;2022-11-04T12:19:21;14.80;99.90
52107;DHT22;38105;52.968;5.974;2022-11-04T12:24:44;14.10;99.90
52107;DHT22;38105;52.968;5.974;2022-11-04T12:27:31;13.80;99.90
52107;DHT22;38105;52.968;5.974;2022-11-04T12:32:49;13.40;99.90
52107;DHT22;38105;52.968;5.974;2022-11-04T12:40:59;13.20;99.90
52107;DHT22;38105;52.968;5.974;2022-11-04T12:43:34;13.20;99.90
52107;DHT22;38105;52.968;5.974;2022-11-04T12:54:45;13.50;99.90
52107;DHT22;38105;52.968;5.974;2022-11-04T12:57:25;13.70;99.90
52107;DHT22;38105;52.968;5.974;2022-11-04T13:00:12;13.70;99.90
52107;DHT22;38105;52.968;5.974;2022-11-04T13:02:48;13.60;99.90
52107;DHT22;38105;52.968;5.974;2022-11-04T13:08:32;13.60;99.90
52107;DHT22;38105;52.968;5.974;2022-11-04T13:13:33;13.70;99.90
52107;DHT22;38105;52.968;5.974;2022-11-04T13:16:05;13.60;99.90
52107;DHT22;38105;52.968;5.974;2022-11-04T13:18:34;13.60;99.90
52107;DHT22;38105;52.968;5.974;2022-11-04T13:21:05;13.60;99.90
52107;DHT22;38105;52.968;5.974;2022-11-04T13:24:03;13.70;99.90
52107;DHT22;38105;52.968;5.974;2022-11-04T13:26:31;13.70;99.90
52107;DHT22;38105;52.968;5.974;2022-11-04T13:29:05;13.70;99.90
52107;DHT22;38105;52.968;5.974;2022-11-04T13:31:41;13.70;99.90
52107;DHT22;38105;52.968;5.974;2022-11-04T13:34:17;13.70;99.90
52107;DHT22;38105;52.968;5.974;2022-11-04T13:40:10;13.70;99.90
52107;DHT22;38105;52.968;5.974;2022-11-04T13:45:53;13.70;99.90
52107;DHT22;38105;52.968;5.974;2022-11-04T13:48:22;13.70;99.90
52107;DHT22;38105;52.968;5.974;2022-11-04T13:51:04;13.80;99.90
52107;DHT22;38105;52.968;5.974;2022-11-04T13:53:52;13.70;99.90
52107;DHT22;38105;52.968;5.974;2022-11-04T13:56:35;13.80;99.90
52107;DHT22;38105;52.968;5.974;2022-11-04T13:59:25;13.80;99.90
52107;DHT22;38105;52.968;5.974;2022-11-04T14:04:42;13.60;99.90
52107;DHT22;38105;52.968;5.974;2022-11-04T14:07:10;13.50;99.90
52107;DHT22;38105;52.968;5.974;2022-11-04T14:14:44;13.20;99.90
52107;DHT22;38105;52.968;5.974;2022-11-04T14:22:48;13.30;99.90
52107;DHT22;38105;52.968;5.974;2022-11-04T14:25:37;13.30;99.90
52107;DHT22;38105;52.968;5.974;2022-11-04T14:33:31;13.40;99.90
52107;DHT22;38105;52.968;5.974;2022-11-04T14:38:39;13.20;99.90
52107;DHT22;38105;52.968;5.974;2022-11-04T14:41:30;13.10;99.90
52107;DHT22;38105;52.968;5.974;2022-11-04T14:44:00;12.90;99.90
52107;DHT22;38105;52.968;5.974;2022-11-04T14:46:33;12.90;99.90
52107;DHT22;38105;52.968;5.974;2022-11-04T14:48:59;12.70;99.90
52107;DHT22;38105;52.968;5.974;2022-11-04T14:51:27;12.60;99.90
52107;DHT22;38105;52.968;5.974;2022-11-04T14:56:36;12.50;99.90
52107;DHT22;38105;52.968;5.974;2022-11-04T14:59:04;12.40;99.90
52107;DHT22;38105;52.968;5.974;2022-11-04T15:01:36;12.40;99.90
52107;DHT22;38105;52.968;5.974;2022-11-04T15:04:47;12.30;99.90
52107;DHT22;38105;52.968;5.974;2022-11-04T15:06:55;12.20;99.90
52107;DHT22;38105;52.968;5.974;2022-11-04T15:09:24;12.20;99.90
52107;DHT22;38105;52.968;5.974;2022-11-04T15:12:20;12.20;99.90
52107;DHT22;38105;52.968;5.974;2022-11-04T15:15:37;12.10;99.90
52107;DHT22;38105;52.968;5.974;2022-11-04T15:18:15;12.10;99.90
52107;DHT22;38105;52.968;5.974;2022-11-04T15:20:57;12.10;99.90
52107;DHT22;38105;52.968;5.974;2022-11-04T15:23:30;12.10;99.90
52107;DHT22;38105;52.968;5.974;2022-11-04T15:25:57;12.00;99.90
52107;DHT22;38105;52.968;5.974;2022-11-04T15:28:35;12.00;99.90
52107;DHT22;38105;52.968;5.974;2022-11-04T15:33:35;11.90;99.90
52107;DHT22;38105;52.968;5.974;2022-11-04T15:36:01;11.90;99.90
52107;DHT22;38105;52.968;5.974;2022-11-04T15:38:27;11.90;99.90
52107;DHT22;38105;52.968;5.974;2022-11-04T15:40:54;11.80;99.90
52107;DHT22;38105;52.968;5.974;2022-11-04T15:43:21;11.70;99.90
52107;DHT22;38105;52.968;5.974;2022-11-04T15:45:51;11.80;99.90
52107;DHT22;38105;52.968;5.974;2022-11-04T15:48:29;11.70;99.90
52107;DHT22;38105;52.968;5.974;2022-11-04T15:51:23;11.70;99.90
52107;DHT22;38105;52.968;5.974;2022-11-04T15:54:05;11.60;99.90
52107;DHT22;38105;52.968;5.974;2022-11-04T15:56:38;11.50;99.90
52107;DHT22;38105;52.968;5.974;2022-11-04T15:59:14;11.40;99.90
52107;DHT22;38105;52.968;5.974;2022-11-04T16:01:46;11.40;99.90
52107;DHT22;38105;52.968;5.974;2022-11-04T16:04:14;11.30;99.90
52107;DHT22;38105;52.968;5.974;2022-11-04T16:06:43;11.20;99.90
52107;DHT22;38105;52.968;5.974;2022-11-04T16:11:37;11.10;99.90
52107;DHT22;38105;52.968;5.974;2022-11-04T16:14:24;11.00;99.90
52107;DHT22;38105;52.968;5.974;2022-11-04T16:16:51;11.00;99.90
52107;DHT22;38105;52.968;5.974;2022-11-04T16:19:20;10.90;99.90
52107;DHT22;38105;52.968;5.974;2022-11-04T16:21:47;10.70;99.90
52107;DHT22;38105;52.968;5.974;2022-11-04T16:24:20;10.70;99.90
52107;DHT22;38105;52.968;5.974;2022-11-04T16:26:48;10.70;99.90
52107;DHT22;38105;52.968;5.974;2022-11-04T16:29:26;10.70;99.90
52107;DHT22;38105;52.968;5.974;2022-11-04T16:34:36;10.50;99.90
52107;DHT22;38105;52.968;5.974;2022-11-04T16:37:03;10.50;99.90
52107;DHT22;38105;52.968;5.974;2022-11-04T16:39:29;10.40;99.90
52107;DHT22;38105;52.968;5.974;2022-11-04T16:41:55;10.40;99.90
52107;DHT22;38105;52.968;5.974;2022-11-04T16:44:23;10.30;99.90
52107;DHT22;38105;52.968;5.974;2022-11-04T16:46:49;10.40;99.90
52107;DHT22;38105;52.968;5.974;2022-11-04T16:49:17;10.20;99.90
52107;DHT22;38105;52.968;5.974;2022-11-04T16:51:44;10.30;99.90
52107;DHT22;38105;52.968;5.974;2022-11-04T16:54:09;10.30;99.90
52107;DHT22;38105;52.968;5.974;2022-11-04T16:56:36;10.30;99.90
52107;DHT22;38105;52.968;5.974;2022-11-04T16:59:02;10.20;99.90
52107;DHT22;38105;52.968;5.974;2022-11-04T17:01:28;10.10;99.90
52107;DHT22;38105;52.968;5.974;2022-11-04T17:03:53;10.20;99.90
52107;DHT22;38105;52.968;5.974;2022-11-04T17:06:19;10.10;99.90
52107;DHT22;38105;52.968;5.974;2022-11-04T17:08:45;10.20;99.90
52107;DHT22;38105;52.968;5.974;2022-11-04T17:11:11;10.10;99.90
52107;DHT22;38105;52.968;5.974;2022-11-04T17:13:37;10.00;99.90
52107;DHT22;38105;52.968;5.974;2022-11-04T17:16:05;9.90;99.90
52107;DHT22;38105;52.968;5.974;2022-11-04T17:18:32;9.80;99.90
52107;DHT22;38105;52.968;5.974;2022-11-04T17:20:58;9.60;99.90
52107;DHT22;38105;52.968;5.974;2022-11-04T17:23:25;9.50;99.90
52107;DHT22;38105;52.968;5.974;2022-11-04T17:25:51;9.60;99.90
52107;DHT22;38105;52.968;5.974;2022-11-04T17:28:17;9.50;99.90
52107;DHT22;38105;52.968;5.974;2022-11-04T17:30:43;9.60;99.90
52107;DHT22;38105;52.968;5.974;2022-11-04T17:33:13;9.50;99.90
52107;DHT22;38105;52.968;5.974;2022-11-04T17:35:41;9.50;99.90
52107;DHT22;38105;52.968;5.974;2022-11-04T17:38:09;9.60;99.90
52107;DHT22;38105;52.968;5.974;2022-11-04T17:40:35;9.50;99.90
52107;DHT22;38105;52.968;5.974;2022-11-04T17:43:21;9.70;99.90
52107;DHT22;38105;52.968;5.974;2022-11-04T17:46:05;9.70;99.90
52107;DHT22;38105;52.968;5.974;2022-11-04T17:48:49;9.50;99.90
52107;DHT22;38105;52.968;5.974;2022-11-04T17:51:15;9.70;99.90
52107;DHT22;38105;52.968;5.974;2022-11-04T17:53:40;9.70;99.90
52107;DHT22;38105;52.968;5.974;2022-11-04T17:56:13;9.70;99.90
52107;DHT22;38105;52.968;5.974;2022-11-04T17:58:39;9.60;99.90
52107;DHT22;38105;52.968;5.974;2022-11-04T18:01:06;9.40;99.90
52107;DHT22;38105;52.968;5.974;2022-11-04T18:03:32;9.40;99.90
52107;DHT22;38105;52.968;5.974;2022-11-04T18:05:58;9.30;99.90
52107;DHT22;38105;52.968;5.974;2022-11-04T18:08:24;9.20;99.90
52107;DHT22;38105;52.968;5.974;2022-11-04T18:10:50;9.20;99.90
52107;DHT22;38105;52.968;5.974;2022-11-04T18:13:21;9.10;99.90
52107;DHT22;38105;52.968;5.974;2022-11-04T18:15:46;9.10;99.90
52107;DHT22;38105;52.968;5.974;2022-11-04T18:18:12;9.10;99.90
52107;DHT22;38105;52.968;5.974;2022-11-04T18:20:38;9.20;99.90
52107;DHT22;38105;52.968;5.974;2022-11-04T18:23:03;9.10;99.90
52107;DHT22;38105;52.968;5.974;2022-11-04T18:25:29;9.00;99.90
52107;DHT22;38105;52.968;5.974;2022-11-04T18:27:55;9.00;99.90
52107;DHT22;38105;52.968;5.974;2022-11-04T18:30:20;9.00;99.90
52107;DHT22;38105;52.968;5.974;2022-11-04T18:32:47;9.00;99.90